sensor_id;sensor_type;location;lat;lon;timestamp;P1;durP1;ratioP1;P2;durP2;ratioP2
76236;SDS011;65038;53.200;6.530;2023-05-29T00:01:53;13.55;;;2.60;;
76236;SDS011;65038;53.200;6.530;2023-05-29T00:04:20;13.25;;;2.50;;
76236;SDS011;65038;53.200;6.530;2023-05-29T00:06:46;16.95;;;2.85;;
76236;SDS011;65038;53.200;6.530;2023-05-29T00:09:13;12.75;;;2.45;;
76236;SDS011;65038;53.200;6.530;2023-05-29T00:11:39;12.50;;;2.50;;
76236;SDS011;65038;53.200;6.530;2023-05-29T00:14:05;14.52;;;2.42;;
76236;SDS011;65038;53.200;6.530;2023-05-29T00:16:31;16.27;;;2.72;;
76236;SDS011;65038;53.200;6.530;2023-05-29T00:18:57;13.80;;;2.88;;
76236;SDS011;65038;53.200;6.530;2023-05-29T00:21:23;15.32;;;2.72;;
76236;SDS011;65038;53.200;6.530;2023-05-29T00:23:50;13.32;;;2.63;;
76236;SDS011;65038;53.200;6.530;2023-05-29T00:26:16;13.82;;;2.75;;
76236;SDS011;65038;53.200;6.530;2023-05-29T00:28:42;16.35;;;2.95;;
76236;SDS011;65038;53.200;6.530;2023-05-29T00:31:08;14.35;;;2.67;;
76236;SDS011;65038;53.200;6.530;2023-05-29T00:33:34;14.52;;;2.95;;
76236;SDS011;65038;53.200;6.530;2023-05-29T00:36:00;10.88;;;2.50;;
76236;SDS011;65038;53.200;6.530;2023-05-29T00:38:26;14.82;;;2.60;;
76236;SDS011;65038;53.200;6.530;2023-05-29T00:40:52;15.02;;;2.40;;
76236;SDS011;65038;53.200;6.530;2023-05-29T00:43:18;13.27;;;2.70;;
76236;SDS011;65038;53.200;6.530;2023-05-29T00:45:44;13.68;;;2.38;;
76236;SDS011;65038;53.200;6.530;2023-05-29T00:48:10;10.30;;;2.20;;
76236;SDS011;65038;53.200;6.530;2023-05-29T00:50:36;12.23;;;2.63;;
76236;SDS011;65038;53.200;6.530;2023-05-29T00:53:02;11.75;;;2.50;;
76236;SDS011;65038;53.200;6.530;2023-05-29T00:55:29;13.15;;;2.67;;
76236;SDS011;65038;53.200;6.530;2023-05-29T00:57:56;14.63;;;2.70;;
76236;SDS011;65038;53.200;6.530;2023-05-29T01:00:22;14.73;;;2.78;;
76236;SDS011;65038;53.200;6.530;2023-05-29T01:02:48;12.55;;;2.42;;
76236;SDS011;65038;53.200;6.530;2023-05-29T01:05:14;11.40;;;3.00;;
76236;SDS011;65038;53.200;6.530;2023-05-29T01:07:41;12.32;;;2.92;;
76236;SDS011;65038;53.200;6.530;2023-05-29T01:10:07;10.75;;;2.63;;
76236;SDS011;65038;53.200;6.530;2023-05-29T01:12:44;12.68;;;2.50;;
76236;SDS011;65038;53.200;6.530;2023-05-29T01:28:05;14.23;;;2.80;;
76236;SDS011;65038;53.200;6.530;2023-05-29T01:30:33;13.50;;;2.65;;
76236;SDS011;65038;53.200;6.530;2023-05-29T01:32:59;14.75;;;2.47;;
76236;SDS011;65038;53.200;6.530;2023-05-29T01:35:25;16.70;;;3.20;;
76236;SDS011;65038;53.200;6.530;2023-05-29T01:37:51;12.20;;;2.83;;
76236;SDS011;65038;53.200;6.530;2023-05-29T01:40:17;17.60;;;2.95;;
76236;SDS011;65038;53.200;6.530;2023-05-29T01:42:43;12.77;;;2.50;;
76236;SDS011;65038;53.200;6.530;2023-05-29T01:45:10;23.50;;;3.25;;
76236;SDS011;65038;53.200;6.530;2023-05-29T01:47:37;13.60;;;3.08;;
76236;SDS011;65038;53.200;6.530;2023-05-29T01:50:03;12.57;;;2.22;;
76236;SDS011;65038;53.200;6.530;2023-05-29T01:52:30;16.13;;;2.83;;
76236;SDS011;65038;53.200;6.530;2023-05-29T01:54:56;13.23;;;2.45;;
76236;SDS011;65038;53.200;6.530;2023-05-29T01:57:22;14.73;;;3.22;;
76236;SDS011;65038;53.200;6.530;2023-05-29T01:59:48;13.88;;;2.50;;
76236;SDS011;65038;53.200;6.530;2023-05-29T02:02:15;15.48;;;2.60;;
76236;SDS011;65038;53.200;6.530;2023-05-29T02:04:40;13.75;;;2.58;;
76236;SDS011;65038;53.200;6.530;2023-05-29T02:07:06;14.48;;;2.97;;
76236;SDS011;65038;53.200;6.530;2023-05-29T02:09:33;17.48;;;3.53;;
76236;SDS011;65038;53.200;6.530;2023-05-29T02:12:00;18.02;;;3.50;;
76236;SDS011;65038;53.200;6.530;2023-05-29T02:14:26;14.48;;;2.97;;
76236;SDS011;65038;53.200;6.530;2023-05-29T02:16:52;12.45;;;2.50;;
76236;SDS011;65038;53.200;6.530;2023-05-29T02:19:18;16.42;;;2.63;;
76236;SDS011;65038;53.200;6.530;2023-05-29T02:21:46;13.73;;;2.90;;
76236;SDS011;65038;53.200;6.530;2023-05-29T02:24:13;13.52;;;3.00;;
76236;SDS011;65038;53.200;6.530;2023-05-29T02:26:39;13.32;;;2.70;;
76236;SDS011;65038;53.200;6.530;2023-05-29T02:29:05;15.93;;;2.92;;
76236;SDS011;65038;53.200;6.530;2023-05-29T02:31:31;13.48;;;2.85;;
76236;SDS011;65038;53.200;6.530;2023-05-29T02:33:57;16.42;;;2.75;;
76236;SDS011;65038;53.200;6.530;2023-05-29T02:36:23;12.40;;;2.42;;
76236;SDS011;65038;53.200;6.530;2023-05-29T02:38:50;15.07;;;2.85;;
76236;SDS011;65038;53.200;6.530;2023-05-29T02:41:16;15.93;;;3.05;;
76236;SDS011;65038;53.200;6.530;2023-05-29T02:43:42;17.23;;;3.20;;
76236;SDS011;65038;53.200;6.530;2023-05-29T02:46:08;13.20;;;2.97;;
76236;SDS011;65038;53.200;6.530;2023-05-29T02:48:34;11.35;;;2.60;;
76236;SDS011;65038;53.200;6.530;2023-05-29T02:51:00;13.77;;;3.03;;
76236;SDS011;65038;53.200;6.530;2023-05-29T02:53:26;11.98;;;2.63;;
76236;SDS011;65038;53.200;6.530;2023-05-29T02:55:52;16.58;;;3.10;;
76236;SDS011;65038;53.200;6.530;2023-05-29T02:58:18;14.00;;;3.33;;
76236;SDS011;65038;53.200;6.530;2023-05-29T03:00:46;13.32;;;2.47;;
76236;SDS011;65038;53.200;6.530;2023-05-29T03:03:12;15.38;;;2.75;;
76236;SDS011;65038;53.200;6.530;2023-05-29T03:05:38;12.88;;;2.72;;
76236;SDS011;65038;53.200;6.530;2023-05-29T03:08:04;15.10;;;2.80;;
76236;SDS011;65038;53.200;6.530;2023-05-29T03:10:30;14.20;;;3.00;;
76236;SDS011;65038;53.200;6.530;2023-05-29T03:12:56;12.27;;;2.63;;
76236;SDS011;65038;53.200;6.530;2023-05-29T03:15:22;15.30;;;2.92;;
76236;SDS011;65038;53.200;6.530;2023-05-29T03:17:48;10.05;;;2.45;;
76236;SDS011;65038;53.200;6.530;2023-05-29T03:20:14;14.23;;;3.15;;
76236;SDS011;65038;53.200;6.530;2023-05-29T03:22:40;16.58;;;2.67;;
76236;SDS011;65038;53.200;6.530;2023-05-29T03:25:06;14.55;;;2.75;;
76236;SDS011;65038;53.200;6.530;2023-05-29T03:27:33;14.77;;;2.60;;
76236;SDS011;65038;53.200;6.530;2023-05-29T03:29:59;14.52;;;3.00;;
76236;SDS011;65038;53.200;6.530;2023-05-29T03:32:25;12.40;;;2.35;;
76236;SDS011;65038;53.200;6.530;2023-05-29T03:34:51;13.65;;;2.75;;
76236;SDS011;65038;53.200;6.530;2023-05-29T03:37:17;11.20;;;3.03;;
76236;SDS011;65038;53.200;6.530;2023-05-29T03:39:43;14.40;;;2.78;;
76236;SDS011;65038;53.200;6.530;2023-05-29T03:42:09;17.13;;;3.58;;
76236;SDS011;65038;53.200;6.530;2023-05-29T03:44:36;15.23;;;3.20;;
76236;SDS011;65038;53.200;6.530;2023-05-29T03:47:02;12.57;;;3.08;;
76236;SDS011;65038;53.200;6.530;2023-05-29T03:49:28;14.63;;;2.70;;
76236;SDS011;65038;53.200;6.530;2023-05-29T03:51:54;11.82;;;2.30;;
76236;SDS011;65038;53.200;6.530;2023-05-29T03:54:20;11.52;;;2.45;;
76236;SDS011;65038;53.200;6.530;2023-05-29T03:56:46;13.38;;;2.50;;
76236;SDS011;65038;53.200;6.530;2023-05-29T03:59:12;14.77;;;2.70;;
76236;SDS011;65038;53.200;6.530;2023-05-29T04:01:38;13.18;;;2.72;;
76236;SDS011;65038;53.200;6.530;2023-05-29T04:04:04;12.57;;;2.60;;
76236;SDS011;65038;53.200;6.530;2023-05-29T04:06:30;9.05;;;2.28;;
76236;SDS011;65038;53.200;6.530;2023-05-29T04:08:57;12.90;;;2.45;;
76236;SDS011;65038;53.200;6.530;2023-05-29T04:11:23;13.35;;;2.40;;
76236;SDS011;65038;53.200;6.530;2023-05-29T04:13:49;9.65;;;2.20;;
76236;SDS011;65038;53.200;6.530;2023-05-29T04:16:15;9.55;;;2.20;;
76236;SDS011;65038;53.200;6.530;2023-05-29T04:18:41;12.70;;;2.33;;
76236;SDS011;65038;53.200;6.530;2023-05-29T04:21:07;12.57;;;2.63;;
76236;SDS011;65038;53.200;6.530;2023-05-29T04:23:33;14.55;;;2.90;;
76236;SDS011;65038;53.200;6.530;2023-05-29T04:25:59;10.15;;;2.25;;
76236;SDS011;65038;53.200;6.530;2023-05-29T04:28:30;14.30;;;2.55;;
76236;SDS011;65038;53.200;6.530;2023-05-29T04:30:56;14.25;;;2.60;;
76236;SDS011;65038;53.200;6.530;2023-05-29T04:33:22;15.55;;;2.55;;
76236;SDS011;65038;53.200;6.530;2023-05-29T04:35:49;8.50;;;2.10;;
76236;SDS011;65038;53.200;6.530;2023-05-29T04:38:15;11.50;;;2.63;;
76236;SDS011;65038;53.200;6.530;2023-05-29T04:40:42;12.73;;;3.00;;
76236;SDS011;65038;53.200;6.530;2023-05-29T04:43:09;11.80;;;2.17;;
76236;SDS011;65038;53.200;6.530;2023-05-29T04:45:35;16.13;;;2.70;;
76236;SDS011;65038;53.200;6.530;2023-05-29T04:48:02;15.48;;;3.83;;
76236;SDS011;65038;53.200;6.530;2023-05-29T04:50:28;13.43;;;2.53;;
76236;SDS011;65038;53.200;6.530;2023-05-29T04:52:56;9.63;;;2.42;;
76236;SDS011;65038;53.200;6.530;2023-05-29T04:55:22;14.55;;;2.65;;
76236;SDS011;65038;53.200;6.530;2023-05-29T04:57:48;12.63;;;2.83;;
76236;SDS011;65038;53.200;6.530;2023-05-29T05:00:15;14.80;;;2.75;;
76236;SDS011;65038;53.200;6.530;2023-05-29T05:02:43;16.67;;;2.88;;
76236;SDS011;65038;53.200;6.530;2023-05-29T05:05:09;17.25;;;2.78;;
76236;SDS011;65038;53.200;6.530;2023-05-29T05:07:35;11.98;;;2.65;;
76236;SDS011;65038;53.200;6.530;2023-05-29T05:10:04;13.95;;;2.63;;
76236;SDS011;65038;53.200;6.530;2023-05-29T05:12:31;14.93;;;2.90;;
76236;SDS011;65038;53.200;6.530;2023-05-29T05:14:57;14.82;;;3.25;;
76236;SDS011;65038;53.200;6.530;2023-05-29T05:17:23;16.67;;;2.83;;
76236;SDS011;65038;53.200;6.530;2023-05-29T05:19:49;15.07;;;2.53;;
76236;SDS011;65038;53.200;6.530;2023-05-29T05:22:17;16.05;;;3.03;;
76236;SDS011;65038;53.200;6.530;2023-05-29T05:24:43;12.05;;;2.83;;
76236;SDS011;65038;53.200;6.530;2023-05-29T05:27:09;13.52;;;2.67;;
76236;SDS011;65038;53.200;6.530;2023-05-29T05:29:35;15.90;;;2.92;;
76236;SDS011;65038;53.200;6.530;2023-05-29T05:32:01;15.80;;;2.97;;
76236;SDS011;65038;53.200;6.530;2023-05-29T05:34:27;15.27;;;3.00;;
76236;SDS011;65038;53.200;6.530;2023-05-29T05:36:53;13.20;;;2.88;;
76236;SDS011;65038;53.200;6.530;2023-05-29T05:39:19;14.55;;;3.17;;
76236;SDS011;65038;53.200;6.530;2023-05-29T05:41:45;14.85;;;3.08;;
76236;SDS011;65038;53.200;6.530;2023-05-29T05:44:11;16.13;;;3.22;;
76236;SDS011;65038;53.200;6.530;2023-05-29T05:46:37;13.40;;;2.80;;
76236;SDS011;65038;53.200;6.530;2023-05-29T05:49:03;15.88;;;3.10;;
76236;SDS011;65038;53.200;6.530;2023-05-29T05:51:29;16.52;;;2.88;;
76236;SDS011;65038;53.200;6.530;2023-05-29T05:53:55;14.48;;;2.65;;
76236;SDS011;65038;53.200;6.530;2023-05-29T05:56:21;16.25;;;2.97;;
76236;SDS011;65038;53.200;6.530;2023-05-29T05:58:48;19.15;;;3.00;;
76236;SDS011;65038;53.200;6.530;2023-05-29T06:01:15;16.67;;;3.05;;
76236;SDS011;65038;53.200;6.530;2023-05-29T06:03:41;14.30;;;3.00;;
76236;SDS011;65038;53.200;6.530;2023-05-29T06:06:07;13.10;;;3.13;;
76236;SDS011;65038;53.200;6.530;2023-05-29T06:08:34;12.65;;;3.33;;
76236;SDS011;65038;53.200;6.530;2023-05-29T06:11:00;14.05;;;3.03;;
76236;SDS011;65038;53.200;6.530;2023-05-29T06:13:26;15.13;;;3.03;;
76236;SDS011;65038;53.200;6.530;2023-05-29T06:15:52;21.05;;;3.70;;
76236;SDS011;65038;53.200;6.530;2023-05-29T06:18:18;16.75;;;3.53;;
76236;SDS011;65038;53.200;6.530;2023-05-29T06:20:44;15.50;;;3.35;;
76236;SDS011;65038;53.200;6.530;2023-05-29T06:23:10;12.98;;;3.15;;
76236;SDS011;65038;53.200;6.530;2023-05-29T06:25:36;14.73;;;3.60;;
76236;SDS011;65038;53.200;6.530;2023-05-29T06:28:03;16.08;;;3.40;;
76236;SDS011;65038;53.200;6.530;2023-05-29T06:30:31;12.35;;;3.45;;
76236;SDS011;65038;53.200;6.530;2023-05-29T06:32:57;15.80;;;2.95;;
76236;SDS011;65038;53.200;6.530;2023-05-29T06:35:23;15.30;;;3.72;;
76236;SDS011;65038;53.200;6.530;2023-05-29T06:37:49;16.00;;;3.05;;
76236;SDS011;65038;53.200;6.530;2023-05-29T06:40:15;15.93;;;3.17;;
76236;SDS011;65038;53.200;6.530;2023-05-29T06:42:41;12.73;;;3.28;;
76236;SDS011;65038;53.200;6.530;2023-05-29T06:45:11;12.98;;;3.15;;
76236;SDS011;65038;53.200;6.530;2023-05-29T06:47:43;13.90;;;3.17;;
76236;SDS011;65038;53.200;6.530;2023-05-29T06:50:09;15.27;;;3.28;;
76236;SDS011;65038;53.200;6.530;2023-05-29T06:52:35;20.13;;;3.88;;
76236;SDS011;65038;53.200;6.530;2023-05-29T06:55:01;19.00;;;4.57;;
76236;SDS011;65038;53.200;6.530;2023-05-29T06:57:27;18.83;;;3.55;;
76236;SDS011;65038;53.200;6.530;2023-05-29T06:59:53;12.93;;;3.03;;
76236;SDS011;65038;53.200;6.530;2023-05-29T07:02:19;18.75;;;3.17;;
76236;SDS011;65038;53.200;6.530;2023-05-29T07:04:45;17.08;;;3.10;;
76236;SDS011;65038;53.200;6.530;2023-05-29T07:07:11;17.70;;;3.30;;
76236;SDS011;65038;53.200;6.530;2023-05-29T07:09:37;13.65;;;3.20;;
76236;SDS011;65038;53.200;6.530;2023-05-29T07:12:04;13.95;;;3.10;;
76236;SDS011;65038;53.200;6.530;2023-05-29T07:14:30;16.95;;;3.38;;
76236;SDS011;65038;53.200;6.530;2023-05-29T07:16:56;12.93;;;3.42;;
76236;SDS011;65038;53.200;6.530;2023-05-29T07:19:22;14.65;;;2.97;;
76236;SDS011;65038;53.200;6.530;2023-05-29T07:21:48;16.83;;;3.35;;
76236;SDS011;65038;53.200;6.530;2023-05-29T07:24:14;15.18;;;3.42;;
76236;SDS011;65038;53.200;6.530;2023-05-29T07:26:40;17.02;;;3.60;;
76236;SDS011;65038;53.200;6.530;2023-05-29T07:29:06;14.40;;;3.30;;
76236;SDS011;65038;53.200;6.530;2023-05-29T07:31:32;15.93;;;3.00;;
76236;SDS011;65038;53.200;6.530;2023-05-29T07:33:58;17.95;;;3.67;;
76236;SDS011;65038;53.200;6.530;2023-05-29T07:38:53;15.88;;;3.60;;
76236;SDS011;65038;53.200;6.530;2023-05-29T07:41:23;17.17;;;3.47;;
76236;SDS011;65038;53.200;6.530;2023-05-29T07:43:49;12.70;;;2.72;;
76236;SDS011;65038;53.200;6.530;2023-05-29T07:46:17;20.00;;;3.20;;
76236;SDS011;65038;53.200;6.530;2023-05-29T07:48:43;16.05;;;2.90;;
76236;SDS011;65038;53.200;6.530;2023-05-29T07:51:11;13.25;;;3.17;;
76236;SDS011;65038;53.200;6.530;2023-05-29T07:53:37;13.55;;;2.88;;
76236;SDS011;65038;53.200;6.530;2023-05-29T07:56:03;17.55;;;3.00;;
76236;SDS011;65038;53.200;6.530;2023-05-29T07:58:30;13.90;;;2.85;;
76236;SDS011;65038;53.200;6.530;2023-05-29T08:00:57;14.35;;;3.10;;
76236;SDS011;65038;53.200;6.530;2023-05-29T08:03:24;15.25;;;3.42;;
76236;SDS011;65038;53.200;6.530;2023-05-29T08:05:50;14.88;;;3.58;;
76236;SDS011;65038;53.200;6.530;2023-05-29T08:08:16;14.68;;;3.10;;
76236;SDS011;65038;53.200;6.530;2023-05-29T08:10:43;12.40;;;2.55;;
76236;SDS011;65038;53.200;6.530;2023-05-29T08:13:10;14.32;;;2.90;;
76236;SDS011;65038;53.200;6.530;2023-05-29T08:15:36;16.33;;;3.30;;
76236;SDS011;65038;53.200;6.530;2023-05-29T08:18:02;15.32;;;3.30;;
76236;SDS011;65038;53.200;6.530;2023-05-29T08:20:28;15.77;;;3.28;;
76236;SDS011;65038;53.200;6.530;2023-05-29T08:22:54;11.27;;;2.80;;
76236;SDS011;65038;53.200;6.530;2023-05-29T08:25:20;12.85;;;3.00;;
76236;SDS011;65038;53.200;6.530;2023-05-29T08:27:46;15.52;;;3.10;;
76236;SDS011;65038;53.200;6.530;2023-05-29T08:30:12;18.67;;;2.90;;
76236;SDS011;65038;53.200;6.530;2023-05-29T08:32:38;12.98;;;2.60;;
76236;SDS011;65038;53.200;6.530;2023-05-29T08:35:04;16.05;;;3.35;;
76236;SDS011;65038;53.200;6.530;2023-05-29T08:37:30;18.67;;;3.20;;
76236;SDS011;65038;53.200;6.530;2023-05-29T08:39:56;15.43;;;3.28;;
76236;SDS011;65038;53.200;6.530;2023-05-29T08:42:26;13.50;;;3.30;;
76236;SDS011;65038;53.200;6.530;2023-05-29T08:44:55;14.25;;;2.95;;
76236;SDS011;65038;53.200;6.530;2023-05-29T08:47:26;15.75;;;3.22;;
76236;SDS011;65038;53.200;6.530;2023-05-29T08:49:53;18.05;;;3.45;;
76236;SDS011;65038;53.200;6.530;2023-05-29T08:52:22;15.55;;;2.78;;
76236;SDS011;65038;53.200;6.530;2023-05-29T08:54:48;18.55;;;3.80;;
76236;SDS011;65038;53.200;6.530;2023-05-29T08:57:14;14.88;;;3.08;;
76236;SDS011;65038;53.200;6.530;2023-05-29T08:59:44;21.92;;;3.45;;
76236;SDS011;65038;53.200;6.530;2023-05-29T09:02:10;16.35;;;3.42;;
76236;SDS011;65038;53.200;6.530;2023-05-29T09:04:37;17.38;;;2.90;;
76236;SDS011;65038;53.200;6.530;2023-05-29T09:07:04;15.85;;;3.00;;
76236;SDS011;65038;53.200;6.530;2023-05-29T09:09:33;17.20;;;3.28;;
76236;SDS011;65038;53.200;6.530;2023-05-29T09:12:00;14.35;;;2.97;;
76236;SDS011;65038;53.200;6.530;2023-05-29T09:14:37;17.65;;;3.00;;
76236;SDS011;65038;53.200;6.530;2023-05-29T09:17:04;16.23;;;3.00;;
76236;SDS011;65038;53.200;6.530;2023-05-29T09:19:31;14.82;;;3.10;;
76236;SDS011;65038;53.200;6.530;2023-05-29T09:22:03;14.82;;;3.00;;
76236;SDS011;65038;53.200;6.530;2023-05-29T09:24:32;10.75;;;2.95;;
76236;SDS011;65038;53.200;6.530;2023-05-29T09:26:58;15.15;;;3.22;;
76236;SDS011;65038;53.200;6.530;2023-05-29T09:29:25;17.23;;;3.30;;
76236;SDS011;65038;53.200;6.530;2023-05-29T09:31:51;17.55;;;3.47;;
76236;SDS011;65038;53.200;6.530;2023-05-29T09:34:17;13.43;;;3.30;;
76236;SDS011;65038;53.200;6.530;2023-05-29T09:36:43;15.35;;;3.20;;
76236;SDS011;65038;53.200;6.530;2023-05-29T09:39:09;15.63;;;3.53;;
76236;SDS011;65038;53.200;6.530;2023-05-29T09:41:42;16.10;;;3.55;;
76236;SDS011;65038;53.200;6.530;2023-05-29T09:44:11;10.43;;;2.70;;
76236;SDS011;65038;53.200;6.530;2023-05-29T09:46:38;17.60;;;3.30;;
76236;SDS011;65038;53.200;6.530;2023-05-29T09:49:08;12.50;;;2.88;;
76236;SDS011;65038;53.200;6.530;2023-05-29T09:51:34;17.05;;;3.38;;
76236;SDS011;65038;53.200;6.530;2023-05-29T09:54:02;18.42;;;3.25;;
76236;SDS011;65038;53.200;6.530;2023-05-29T09:56:39;17.10;;;2.97;;
76236;SDS011;65038;53.200;6.530;2023-05-29T09:59:06;13.30;;;3.08;;
76236;SDS011;65038;53.200;6.530;2023-05-29T10:01:33;14.02;;;3.42;;
76236;SDS011;65038;53.200;6.530;2023-05-29T10:03:59;21.27;;;3.22;;
76236;SDS011;65038;53.200;6.530;2023-05-29T10:06:27;13.55;;;2.70;;
76236;SDS011;65038;53.200;6.530;2023-05-29T10:08:54;14.45;;;3.15;;
76236;SDS011;65038;53.200;6.530;2023-05-29T10:11:22;12.27;;;2.58;;
76236;SDS011;65038;53.200;6.530;2023-05-29T10:13:51;13.90;;;2.70;;
76236;SDS011;65038;53.200;6.530;2023-05-29T10:16:20;14.45;;;2.85;;
76236;SDS011;65038;53.200;6.530;2023-05-29T10:18:50;14.00;;;3.10;;
76236;SDS011;65038;53.200;6.530;2023-05-29T10:21:16;15.13;;;2.78;;
76236;SDS011;65038;53.200;6.530;2023-05-29T10:23:44;16.45;;;3.17;;
76236;SDS011;65038;53.200;6.530;2023-05-29T10:26:26;14.07;;;3.00;;
76236;SDS011;65038;53.200;6.530;2023-05-29T10:29:13;17.20;;;3.08;;
76236;SDS011;65038;53.200;6.530;2023-05-29T10:37:16;11.63;;;2.92;;
76236;SDS011;65038;53.200;6.530;2023-05-29T10:39:37;13.02;;;2.80;;
76236;SDS011;65038;53.200;6.530;2023-05-29T10:42:07;15.43;;;3.47;;
76236;SDS011;65038;53.200;6.530;2023-05-29T10:44:50;12.30;;;2.90;;
76236;SDS011;65038;53.200;6.530;2023-05-29T10:47:22;17.67;;;3.30;;
76236;SDS011;65038;53.200;6.530;2023-05-29T10:49:49;15.25;;;3.10;;
76236;SDS011;65038;53.200;6.530;2023-05-29T10:52:16;14.45;;;2.92;;
76236;SDS011;65038;53.200;6.530;2023-05-29T10:54:50;14.95;;;2.78;;
76236;SDS011;65038;53.200;6.530;2023-05-29T10:57:17;14.80;;;2.90;;
76236;SDS011;65038;53.200;6.530;2023-05-29T10:59:44;14.07;;;2.88;;
76236;SDS011;65038;53.200;6.530;2023-05-29T11:02:10;12.20;;;2.83;;
76236;SDS011;65038;53.200;6.530;2023-05-29T11:04:37;13.95;;;2.70;;
76236;SDS011;65038;53.200;6.530;2023-05-29T11:07:03;15.75;;;2.92;;
76236;SDS011;65038;53.200;6.530;2023-05-29T11:09:32;14.13;;;3.10;;
76236;SDS011;65038;53.200;6.530;2023-05-29T11:15:08;13.93;;;2.85;;
76236;SDS011;65038;53.200;6.530;2023-05-29T11:20:05;13.55;;;3.00;;
76236;SDS011;65038;53.200;6.530;2023-05-29T11:22:34;9.48;;;2.28;;
76236;SDS011;65038;53.200;6.530;2023-05-29T11:25:03;16.95;;;2.78;;
76236;SDS011;65038;53.200;6.530;2023-05-29T11:27:30;12.65;;;2.60;;
76236;SDS011;65038;53.200;6.530;2023-05-29T11:29:56;11.10;;;2.75;;
76236;SDS011;65038;53.200;6.530;2023-05-29T11:32:22;11.27;;;2.83;;
76236;SDS011;65038;53.200;6.530;2023-05-29T11:34:51;10.75;;;3.00;;
76236;SDS011;65038;53.200;6.530;2023-05-29T11:37:17;12.70;;;2.50;;
76236;SDS011;65038;53.200;6.530;2023-05-29T11:39:45;12.77;;;2.50;;
76236;SDS011;65038;53.200;6.530;2023-05-29T11:42:11;13.32;;;2.75;;
76236;SDS011;65038;53.200;6.530;2023-05-29T11:44:37;12.23;;;2.80;;
76236;SDS011;65038;53.200;6.530;2023-05-29T11:47:04;15.30;;;3.10;;
76236;SDS011;65038;53.200;6.530;2023-05-29T11:49:30;12.65;;;2.50;;
76236;SDS011;65038;53.200;6.530;2023-05-29T11:52:08;15.15;;;2.65;;
76236;SDS011;65038;53.200;6.530;2023-05-29T11:54:35;10.63;;;2.50;;
76236;SDS011;65038;53.200;6.530;2023-05-29T11:57:02;16.95;;;3.10;;
76236;SDS011;65038;53.200;6.530;2023-05-29T11:59:30;12.75;;;2.95;;
76236;SDS011;65038;53.200;6.530;2023-05-29T12:01:56;12.73;;;2.70;;
76236;SDS011;65038;53.200;6.530;2023-05-29T12:04:22;12.15;;;2.75;;
76236;SDS011;65038;53.200;6.530;2023-05-29T12:06:48;12.38;;;2.80;;
76236;SDS011;65038;53.200;6.530;2023-05-29T12:09:27;16.40;;;2.90;;
76236;SDS011;65038;53.200;6.530;2023-05-29T12:12:02;14.15;;;3.35;;
76236;SDS011;65038;53.200;6.530;2023-05-29T12:14:29;12.45;;;2.63;;
76236;SDS011;65038;53.200;6.530;2023-05-29T12:16:55;10.15;;;2.80;;
76236;SDS011;65038;53.200;6.530;2023-05-29T12:19:21;14.68;;;2.97;;
76236;SDS011;65038;53.200;6.530;2023-05-29T12:21:47;11.77;;;2.85;;
76236;SDS011;65038;53.200;6.530;2023-05-29T12:24:14;16.65;;;3.13;;
76236;SDS011;65038;53.200;6.530;2023-05-29T12:26:41;11.30;;;2.55;;
76236;SDS011;65038;53.200;6.530;2023-05-29T12:29:08;18.73;;;3.30;;
76236;SDS011;65038;53.200;6.530;2023-05-29T12:31:34;14.90;;;2.88;;
76236;SDS011;65038;53.200;6.530;2023-05-29T12:34:02;12.05;;;2.92;;
76236;SDS011;65038;53.200;6.530;2023-05-29T12:36:28;13.65;;;2.80;;
76236;SDS011;65038;53.200;6.530;2023-05-29T12:38:55;13.07;;;2.55;;
76236;SDS011;65038;53.200;6.530;2023-05-29T12:41:29;10.27;;;2.50;;
76236;SDS011;65038;53.200;6.530;2023-05-29T12:43:56;10.63;;;2.42;;
76236;SDS011;65038;53.200;6.530;2023-05-29T12:46:23;11.02;;;2.30;;
76236;SDS011;65038;53.200;6.530;2023-05-29T12:48:49;12.63;;;2.33;;
76236;SDS011;65038;53.200;6.530;2023-05-29T12:51:17;13.10;;;2.60;;
76236;SDS011;65038;53.200;6.530;2023-05-29T12:53:47;13.23;;;2.33;;
76236;SDS011;65038;53.200;6.530;2023-05-29T12:56:13;12.38;;;2.30;;
76236;SDS011;65038;53.200;6.530;2023-05-29T12:58:39;10.82;;;2.45;;
76236;SDS011;65038;53.200;6.530;2023-05-29T13:01:05;13.82;;;2.75;;
76236;SDS011;65038;53.200;6.530;2023-05-29T13:03:38;11.00;;;2.40;;
76236;SDS011;65038;53.200;6.530;2023-05-29T13:06:05;10.05;;;2.42;;
76236;SDS011;65038;53.200;6.530;2023-05-29T13:08:32;8.68;;;2.20;;
76236;SDS011;65038;53.200;6.530;2023-05-29T13:10:58;15.48;;;3.08;;
76236;SDS011;65038;53.200;6.530;2023-05-29T13:13:24;11.45;;;2.17;;
76236;SDS011;65038;53.200;6.530;2023-05-29T13:15:50;9.05;;;2.25;;
76236;SDS011;65038;53.200;6.530;2023-05-29T13:18:16;11.15;;;2.38;;
76236;SDS011;65038;53.200;6.530;2023-05-29T13:20:42;9.45;;;2.10;;
76236;SDS011;65038;53.200;6.530;2023-05-29T13:23:08;10.57;;;2.45;;
76236;SDS011;65038;53.200;6.530;2023-05-29T13:25:34;10.45;;;2.70;;
76236;SDS011;65038;53.200;6.530;2023-05-29T13:28:00;9.20;;;2.17;;
76236;SDS011;65038;53.200;6.530;2023-05-29T13:30:26;10.93;;;2.28;;
76236;SDS011;65038;53.200;6.530;2023-05-29T13:32:52;11.20;;;2.60;;
76236;SDS011;65038;53.200;6.530;2023-05-29T13:35:19;13.27;;;2.92;;
76236;SDS011;65038;53.200;6.530;2023-05-29T13:37:45;7.40;;;2.03;;
76236;SDS011;65038;53.200;6.530;2023-05-29T13:40:11;12.10;;;2.40;;
76236;SDS011;65038;53.200;6.530;2023-05-29T13:42:38;12.57;;;2.35;;
76236;SDS011;65038;53.200;6.530;2023-05-29T13:45:05;12.45;;;2.20;;
76236;SDS011;65038;53.200;6.530;2023-05-29T13:47:32;10.95;;;2.38;;
76236;SDS011;65038;53.200;6.530;2023-05-29T13:49:58;10.13;;;2.50;;
76236;SDS011;65038;53.200;6.530;2023-05-29T13:52:24;8.93;;;2.22;;
76236;SDS011;65038;53.200;6.530;2023-05-29T13:54:50;10.45;;;2.45;;
76236;SDS011;65038;53.200;6.530;2023-05-29T13:57:17;8.95;;;1.92;;
76236;SDS011;65038;53.200;6.530;2023-05-29T13:59:43;10.45;;;2.10;;
76236;SDS011;65038;53.200;6.530;2023-05-29T14:02:09;12.30;;;2.72;;
76236;SDS011;65038;53.200;6.530;2023-05-29T14:04:35;11.20;;;2.20;;
76236;SDS011;65038;53.200;6.530;2023-05-29T14:07:01;11.63;;;2.70;;
76236;SDS011;65038;53.200;6.530;2023-05-29T14:09:27;13.07;;;2.28;;
76236;SDS011;65038;53.200;6.530;2023-05-29T14:11:54;12.00;;;2.03;;
76236;SDS011;65038;53.200;6.530;2023-05-29T14:14:20;8.68;;;2.15;;
76236;SDS011;65038;53.200;6.530;2023-05-29T14:16:46;10.60;;;2.20;;
76236;SDS011;65038;53.200;6.530;2023-05-29T14:19:12;8.50;;;1.92;;
76236;SDS011;65038;53.200;6.530;2023-05-29T14:21:38;8.05;;;2.47;;
76236;SDS011;65038;53.200;6.530;2023-05-29T14:24:04;6.88;;;1.92;;
76236;SDS011;65038;53.200;6.530;2023-05-29T14:26:30;9.68;;;1.98;;
76236;SDS011;65038;53.200;6.530;2023-05-29T14:28:56;11.48;;;2.15;;
76236;SDS011;65038;53.200;6.530;2023-05-29T14:31:22;8.75;;;2.08;;
76236;SDS011;65038;53.200;6.530;2023-05-29T14:33:48;10.30;;;2.17;;
76236;SDS011;65038;53.200;6.530;2023-05-29T14:36:14;8.77;;;2.25;;
76236;SDS011;65038;53.200;6.530;2023-05-29T14:38:40;8.70;;;2.08;;
76236;SDS011;65038;53.200;6.530;2023-05-29T14:41:08;10.82;;;2.10;;
76236;SDS011;65038;53.200;6.530;2023-05-29T14:43:34;12.75;;;2.20;;
76236;SDS011;65038;53.200;6.530;2023-05-29T14:46:00;8.48;;;2.00;;
76236;SDS011;65038;53.200;6.530;2023-05-29T14:48:26;9.80;;;2.40;;
76236;SDS011;65038;53.200;6.530;2023-05-29T14:50:52;8.73;;;2.30;;
76236;SDS011;65038;53.200;6.530;2023-05-29T14:53:18;9.73;;;2.30;;
76236;SDS011;65038;53.200;6.530;2023-05-29T14:55:45;13.23;;;2.60;;
76236;SDS011;65038;53.200;6.530;2023-05-29T14:58:11;7.70;;;2.03;;
76236;SDS011;65038;53.200;6.530;2023-05-29T15:00:39;11.65;;;1.98;;